Time;durP1;ratioP1;P1;durP2;ratioP2;P2;SDS_P1;SDS_P2;PMS_P1;PMS_P2;Temp;Humidity;BMP_temperature;BMP_pressure;BME280_temperature;BME280_humidity;BME280_pressure;Samples;Min_cycle;Max_cycle;Signal;HPM_P1;HPM_P2
2023/03/10 00:01:20;;;;;;;33.13;16.23;;;;;;;1.16;85.93;97868.28;10451153;28;20124;-78
2023/03/10 00:06:26;;;;;;;25.42;14.90;;;;;;;1.08;86.13;97846.09;10453545;28;20088;-79
2023/03/10 00:11:29;;;;;;;31.02;15.38;;;;;;;0.98;86.41;97848.63;10445303;28;20048;-79
2023/03/10 00:16:33;;;;;;;28.15;15.40;;;;;;;1.13;86.71;97838.63;10456629;28;20480;-79
2023/03/10 00:21:36;;;;;;;31.40;18.45;;;;;;;1.21;86.70;97805.28;10453498;28;20048;-79
2023/03/10 00:26:39;;;;;;;31.02;17.83;;;;;;;1.26;86.08;97797.81;10466725;28;20037;-79
2023/03/10 00:31:43;;;;;;;30.98;15.80;;;;;;;1.19;86.34;97787.88;10450788;28;20111;-79
2023/03/10 00:36:46;;;;;;;34.67;16.50;;;;;;;1.15;86.49;97789.94;10503351;28;20044;-79
2023/03/10 00:41:49;;;;;;;26.80;15.60;;;;;;;1.17;87.59;97781.88;10484708;28;20066;-78
2023/03/10 00:46:54;;;;;;;30.58;16.33;;;;;;;1.26;87.81;97758.16;10501462;28;20071;-79
2023/03/10 00:51:57;;;;;;;28.13;15.68;;;;;;;1.34;87.48;97749.53;10479675;28;20090;-79
2023/03/10 00:56:59;;;;;;;27.65;14.52;;;;;;;1.35;99.09;97740.66;10465864;28;20045;-79
2023/03/10 01:02:06;;;;;;;29.52;16.55;;;;;;;1.39;96.57;97717.41;10477525;28;20071;-79
2023/03/10 01:07:09;;;;;;;30.58;16.38;;;;;;;1.42;88.22;97715.34;10484357;28;20061;-79
2023/03/10 01:12:12;;;;;;;26.08;14.95;;;;;;;1.54;87.51;97694.09;10486686;28;20053;-79
2023/03/10 01:17:16;;;;;;;32.63;17.70;;;;;;;1.63;87.36;97677.44;10495579;28;20040;-80
2023/03/10 01:22:19;;;;;;;36.75;19.33;;;;;;;1.65;87.25;97659.63;10515622;28;20109;-81
2023/03/10 01:27:22;;;;;;;33.22;17.75;;;;;;;1.62;87.57;97647.50;10486171;28;20047;-81
2023/03/10 01:32:26;;;;;;;31.08;17.58;;;;;;;1.64;87.53;97634.94;10503920;28;20099;-80
2023/03/10 01:37:29;;;;;;;40.17;18.10;;;;;;;1.59;91.87;97596.63;10475572;28;20074;-79
2023/03/10 01:42:32;;;;;;;42.00;18.80;;;;;;;1.72;91.01;97586.63;10457980;28;20165;-79
2023/03/10 01:47:36;;;;;;;40.92;17.75;;;;;;;1.87;90.67;97568.56;10480885;28;20120;-80
2023/03/10 01:52:43;;;;;;;37.97;18.17;;;;;;;2.04;88.21;97557.28;10458646;28;20049;-80
2023/03/10 01:57:51;;;;;;;38.25;16.90;;;;;;;2.16;88.12;97552.66;10478315;28;20497;-80
2023/03/10 02:03:02;;;;;;;37.42;16.13;;;;;;;2.35;88.05;97541.22;10470869;28;20103;-81
2023/03/10 02:08:06;;;;;;;32.85;14.25;;;;;;;2.39;87.61;97521.44;10473460;28;20526;-81
2023/03/10 02:13:09;;;;;;;39.42;15.38;;;;;;;2.43;87.93;97529.94;10455361;28;20070;-79
2023/03/10 02:18:15;;;;;;;44.45;15.80;;;;;;;2.25;87.02;97503.31;10464144;28;20041;-79
2023/03/10 02:23:25;;;;;;;37.80;14.88;;;;;;;2.11;92.37;97531.94;10486129;28;20047;-80
2023/03/10 02:28:29;;;;;;;34.13;15.43;;;;;;;2.68;92.31;97496.69;10461607;28;20079;-80
2023/03/10 02:33:33;;;;;;;44.30;18.13;;;;;;;3.11;92.40;97482.00;10454874;28;20223;-80
2023/03/10 02:38:36;;;;;;;46.63;17.92;;;;;;;3.36;91.62;97464.53;10476903;28;20041;-79
2023/03/10 02:43:41;;;;;;;35.80;15.63;;;;;;;3.68;92.37;97464.88;10461175;28;20069;-80
2023/03/10 02:48:54;;;;;;;59.03;15.60;;;;;;;3.96;91.08;97451.50;10463508;28;20056;-80
2023/03/10 02:54:04;;;;;;;21.83;10.15;;;;;;;3.61;91.11;97439.09;10465420;28;20045;-79
2023/03/10 02:59:09;;;;;;;16.05;9.40;;;;;;;4.31;92.18;97436.47;10465690;28;20056;-79
2023/03/10 03:04:17;;;;;;;16.25;8.27;;;;;;;5.04;93.77;97430.69;10466651;28;20040;-79
2023/03/10 03:09:21;;;;;;;10.95;6.60;;;;;;;5.57;92.78;97432.19;10488506;28;20504;-80
2023/03/10 03:14:26;;;;;;;14.40;6.57;;;;;;;5.72;93.43;97427.03;10457121;28;20432;-78
2023/03/10 03:19:29;;;;;;;8.93;5.70;;;;;;;5.39;94.33;97429.63;10471075;28;20036;-80
2023/03/10 03:24:33;;;;;;;9.30;6.47;;;;;;;5.11;97.12;97452.19;10454019;28;20071;-77
2023/03/10 03:29:38;;;;;;;11.07;6.15;;;;;;;5.01;98.04;97466.44;10476589;28;20086;-77
2023/03/10 03:34:41;;;;;;;10.13;7.30;;;;;;;4.99;99.62;97487.06;10488493;28;20051;-78
2023/03/10 03:39:44;;;;;;;12.63;8.48;;;;;;;5.37;97.95;97490.19;10425831;22;20174;-78
2023/03/10 03:44:49;;;;;;;9.23;6.30;;;;;;;5.25;98.47;97510.13;10407776;28;20685;-78
2023/03/10 03:49:52;;;;;;;14.70;10.15;;;;;;;5.17;97.04;97515.41;10384442;28;20061;-79
2023/03/10 03:54:55;;;;;;;12.73;8.68;;;;;;;5.31;95.52;97530.75;10386118;28;20500;-77
2023/03/10 03:59:59;;;;;;;16.60;11.52;;;;;;;4.88;96.35;97545.81;10390501;28;20519;-78
2023/03/10 04:05:04;;;;;;;14.98;9.80;;;;;;;5.00;95.05;97552.56;10406948;28;20504;-78
2023/03/10 04:10:09;;;;;;;17.33;11.65;;;;;;;5.51;92.00;97560.59;10389807;28;20069;-77
2023/03/10 04:15:14;;;;;;;14.80;11.43;;;;;;;4.76;88.26;97568.34;10394911;28;20056;-79
2023/03/10 04:20:17;;;;;;;17.80;9.77;;;;;;;4.72;88.37;97565.16;10394116;28;20381;-78
2023/03/10 04:25:23;;;;;;;15.35;8.93;;;;;;;4.47;88.06;97580.13;10396013;28;20050;-78
2023/03/10 04:30:28;;;;;;;12.70;8.73;;;;;;;4.15;87.95;97581.47;10381748;28;20045;-77
2023/03/10 04:35:34;;;;;;;11.88;8.52;;;;;;;3.88;87.21;97574.41;10390184;28;20389;-78
2023/03/10 04:40:37;;;;;;;13.65;8.75;;;;;;;3.58;87.81;97575.56;10397438;28;20073;-78
2023/03/10 04:45:42;;;;;;;13.70;9.40;;;;;;;3.42;87.48;97573.56;10388008;28;20064;-78
2023/03/10 04:50:45;;;;;;;14.32;9.68;;;;;;;3.37;87.76;97580.28;10380313;28;20092;-78
2023/03/10 04:55:50;;;;;;;12.57;9.18;;;;;;;3.41;87.91;97582.50;10378696;28;20068;-78
2023/03/10 05:00:56;;;;;;;15.50;8.85;;;;;;;3.35;87.82;97582.28;10397087;28;20053;-78
2023/03/10 05:06:14;;;;;;;15.20;9.90;;;;;;;3.30;87.85;97579.22;10382536;28;20046;-79
2023/03/10 05:11:19;;;;;;;15.15;9.23;;;;;;;3.27;87.75;97569.75;10376752;28;20068;-78
2023/03/10 05:16:24;;;;;;;15.25;10.52;;;;;;;3.22;87.87;97572.00;10381631;28;20140;-77
2023/03/10 05:21:28;;;;;;;15.63;10.35;;;;;;;3.11;87.09;97575.66;10392480;28;20396;-78
2023/03/10 05:26:33;;;;;;;16.38;10.60;;;;;;;3.01;87.68;97586.28;10393129;28;20061;-78
2023/03/10 05:31:39;;;;;;;14.63;9.70;;;;;;;2.94;87.58;97584.38;10399297;28;20379;-78
2023/03/10 05:36:47;;;;;;;18.73;11.02;;;;;;;2.87;87.64;97600.00;10406769;28;20411;-79
2023/03/10 05:41:51;;;;;;;15.73;9.88;;;;;;;2.84;87.61;97600.31;10376048;28;20042;-78
2023/03/10 05:46:57;;;;;;;15.05;9.68;;;;;;;2.79;87.56;97603.38;10376029;28;20057;-78
2023/03/10 05:52:00;;;;;;;16.38;10.02;;;;;;;2.75;87.55;97602.00;10409245;28;20112;-78
2023/03/10 05:57:03;;;;;;;17.75;11.07;;;;;;;2.74;87.40;97594.19;10385051;28;20069;-78
2023/03/10 06:02:09;;;;;;;16.58;9.93;;;;;;;2.70;87.44;97604.25;10373397;28;20042;-77
2023/03/10 06:07:11;;;;;;;14.50;9.88;;;;;;;2.69;87.66;97599.06;10390320;28;20038;-78
2023/03/10 06:12:14;;;;;;;14.30;9.52;;;;;;;2.63;87.44;97603.13;10383984;28;20049;-78
2023/03/10 06:17:18;;;;;;;18.38;9.95;;;;;;;2.61;87.49;97613.88;10388183;28;20045;-78
2023/03/10 06:22:21;;;;;;;14.77;9.57;;;;;;;2.61;87.57;97603.28;10392208;28;20527;-78
2023/03/10 06:27:24;;;;;;;17.33;10.15;;;;;;;2.60;87.49;97604.25;10381846;28;20065;-78
2023/03/10 06:32:28;;;;;;;15.15;9.25;;;;;;;2.61;87.35;97613.06;10372106;28;20042;-78
2023/03/10 06:37:31;;;;;;;16.63;9.77;;;;;;;2.49;87.24;97614.13;10385613;28;20073;-78
2023/03/10 06:42:34;;;;;;;17.35;10.30;;;;;;;2.49;87.59;97630.88;10379735;28;20038;-78
2023/03/10 06:47:38;;;;;;;16.40;10.10;;;;;;;2.43;87.62;97626.13;10408655;28;20500;-78
2023/03/10 06:52:42;;;;;;;17.85;10.13;;;;;;;2.44;87.56;97632.25;10390416;28;20038;-78
2023/03/10 06:57:44;;;;;;;20.27;10.25;;;;;;;2.35;87.58;97633.94;10386561;28;20453;-78
2023/03/10 07:02:49;;;;;;;16.70;9.45;;;;;;;2.35;87.24;97632.13;10398323;28;20042;-80
2023/03/10 07:07:51;;;;;;;15.45;9.45;;;;;;;2.33;87.32;97628.81;10412902;28;20073;-79
2023/03/10 07:12:57;;;;;;;17.42;9.82;;;;;;;2.42;87.72;97636.88;10401242;28;20423;-80
2023/03/10 07:18:01;;;;;;;14.18;8.75;;;;;;;2.21;87.23;97650.25;10400665;28;20054;-79
2023/03/10 07:23:04;;;;;;;15.98;7.30;;;;;;;2.28;88.61;97660.16;10398220;28;20128;-78
2023/03/10 07:28:07;;;;;;;20.30;9.43;;;;;;;2.76;87.81;97655.84;10434742;28;20046;-79
2023/03/10 07:33:11;;;;;;;29.25;13.60;;;;;;;2.90;87.47;97668.66;10423683;28;20041;-77
2023/03/10 07:38:14;;;;;;;26.38;12.75;;;;;;;2.84;87.49;97690.44;10415783;28;20412;-78
2023/03/10 07:43:17;;;;;;;17.95;10.00;;;;;;;3.05;87.75;97672.56;10399249;28;20030;-78
2023/03/10 07:48:21;;;;;;;12.70;8.55;;;;;;;3.05;87.24;97677.03;10405002;28;20045;-78
2023/03/10 07:53:24;;;;;;;8.27;6.18;;;;;;;2.99;87.26;97686.38;10398683;28;20108;-78
2023/03/10 07:58:27;;;;;;;8.77;6.53;;;;;;;2.79;86.70;97685.56;10386953;28;20045;-78
2023/03/10 08:03:32;;;;;;;11.15;7.22;;;;;;;2.74;87.50;97673.69;10386660;28;20049;-78
2023/03/10 08:08:35;;;;;;;11.68;7.35;;;;;;;2.76;87.49;97690.31;10403348;28;20069;-77
2023/03/10 08:13:39;;;;;;;12.75;7.65;;;;;;;2.47;88.08;97693.78;10372766;28;20041;-78
2023/03/10 08:18:43;;;;;;;14.32;7.80;;;;;;;2.88;88.17;97691.00;10389595;28;20038;-78
2023/03/10 08:23:46;;;;;;;11.45;7.97;;;;;;;3.12;88.62;97680.75;10390342;28;20096;-77
2023/03/10 08:28:49;;;;;;;11.77;8.00;;;;;;;3.15;87.62;97691.09;10396873;28;20046;-78
2023/03/10 08:33:56;;;;;;;15.65;9.88;;;;;;;3.15;87.95;97701.69;10391729;28;20038;-77
2023/03/10 08:39:01;;;;;;;14.75;8.85;;;;;;;2.99;87.29;97698.78;10398708;28;20096;-77
2023/03/10 08:44:04;;;;;;;19.45;9.98;;;;;;;2.89;88.07;97693.50;10383384;28;20093;-78
2023/03/10 08:49:08;;;;;;;14.57;8.65;;;;;;;2.89;87.41;97701.47;10409744;28;20064;-77
2023/03/10 08:54:14;;;;;;;16.85;10.23;;;;;;;3.11;88.47;97688.88;10400973;28;20092;-79
2023/03/10 08:59:18;;;;;;;13.48;9.02;;;;;;;3.34;88.61;97690.19;10395568;28;20050;-78
2023/03/10 09:04:22;;;;;;;11.75;8.43;;;;;;;3.37;88.24;97689.91;10403419;28;20041;-78
2023/03/10 09:09:25;;;;;;;14.88;10.18;;;;;;;3.67;88.67;97688.00;10410751;28;20747;-79
2023/03/10 09:14:27;;;;;;;17.10;9.38;;;;;;;3.76;88.12;97689.78;10396558;28;20049;-78
2023/03/10 09:19:32;;;;;;;14.20;8.98;;;;;;;3.78;88.90;97695.75;10407647;28;20046;-79
2023/03/10 09:24:35;;;;;;;11.57;8.65;;;;;;;3.94;88.77;97706.59;10402189;28;20033;-78
2023/03/10 09:29:37;;;;;;;15.15;9.20;;;;;;;3.71;87.62;97697.34;10398108;28;20061;-78
2023/03/10 09:34:46;;;;;;;13.15;8.52;;;;;;;3.71;87.92;97698.19;10407693;28;20045;-78
2023/03/10 09:39:49;;;;;;;13.23;9.43;;;;;;;3.61;88.40;97701.84;10432801;23;20041;-77
2023/03/10 09:45:03;;;;;;;12.35;9.15;;;;;;;3.83;88.89;97698.81;10440285;28;20072;-78
2023/03/10 09:50:23;;;;;;;14.43;9.57;;;;;;;3.76;87.85;97710.16;10435362;28;20115;-77
2023/03/10 09:55:29;;;;;;;31.08;16.70;;;;;;;3.78;88.15;97716.16;10419735;28;20403;-77
2023/03/10 10:00:37;;;;;;;16.65;10.85;;;;;;;3.66;88.14;97713.69;10426003;28;20049;-77
2023/03/10 10:05:41;;;;;;;19.48;12.27;;;;;;;3.69;88.25;97708.09;10426037;28;20064;-78
2023/03/10 10:10:48;;;;;;;17.67;10.25;;;;;;;3.81;88.66;97706.09;10428747;28;20073;-77
2023/03/10 10:15:56;;;;;;;20.38;11.05;;;;;;;3.91;88.69;97711.38;10436072;28;20053;-77
2023/03/10 10:21:24;;;;;;;17.98;10.80;;;;;;;4.20;89.20;97710.34;10429674;28;20136;-79
2023/03/10 10:26:32;;;;;;;16.67;11.35;;;;;;;4.34;88.86;97709.88;10435925;28;20403;-79
2023/03/10 10:31:35;;;;;;;14.48;10.02;;;;;;;4.29;88.22;97723.59;10431314;28;20474;-78
2023/03/10 10:36:50;;;;;;;10.95;7.70;;;;;;;4.11;88.13;97714.75;10439777;28;20067;-79
2023/03/10 10:41:54;;;;;;;9.45;6.47;;;;;;;4.21;88.79;97725.34;10441975;28;20045;-78
2023/03/10 10:46:57;;;;;;;9.45;6.40;;;;;;;4.38;88.83;97714.72;10436431;28;20073;-78
2023/03/10 10:52:04;;;;;;;8.43;5.97;;;;;;;4.32;88.52;97714.50;10425681;28;20095;-77
2023/03/10 10:57:17;;;;;;;9.95;6.30;;;;;;;4.74;89.35;97713.91;10429258;28;20056;-78
2023/03/10 11:02:24;;;;;;;12.23;7.22;;;;;;;4.99;89.30;97715.84;10431540;28;20075;-78
2023/03/10 11:07:28;;;;;;;6.40;5.07;;;;;;;5.13;89.65;97708.28;10433065;28;20125;-80
2023/03/10 11:12:35;;;;;;;5.82;4.82;;;;;;;5.12;88.76;97702.13;10436210;28;20077;-78
2023/03/10 11:17:43;;;;;;;6.82;5.07;;;;;;;4.95;88.52;97706.44;10427601;28;20072;-77
2023/03/10 11:22:52;;;;;;;9.85;6.40;;;;;;;4.79;89.60;97708.97;10432101;28;20042;-79
2023/03/10 11:28:04;;;;;;;12.60;4.47;;;;;;;4.54;89.83;97708.75;10434750;28;20037;-78
2023/03/10 11:33:20;;;;;;;7.97;5.32;;;;;;;4.10;89.32;97715.75;10441536;28;20045;-77
2023/03/10 11:38:37;;;;;;;6.05;5.15;;;;;;;4.22;89.15;97708.41;10425559;28;20041;-79
2023/03/10 11:43:52;;;;;;;6.63;4.45;;;;;;;4.35;88.96;97706.22;10437438;28;20041;-80
2023/03/10 11:49:04;;;;;;;6.18;4.57;;;;;;;4.49;89.56;97702.22;10412800;28;20060;-78
2023/03/10 11:54:15;;;;;;;8.52;5.15;;;;;;;4.73;89.44;97702.44;10444071;28;20083;-78
2023/03/10 11:59:21;;;;;;;5.20;4.03;;;;;;;4.51;87.42;97710.88;10442219;28;20056;-79
2023/03/10 12:04:30;;;;;;;5.05;4.00;;;;;;;4.28;88.77;97699.81;10443964;28;20037;-78
2023/03/10 12:09:41;;;;;;;6.13;4.80;;;;;;;4.36;88.97;97705.22;10440551;28;20075;-77
2023/03/10 12:14:46;;;;;;;6.05;3.95;;;;;;;4.50;88.90;97691.44;10436518;28;20037;-79
2023/03/10 12:20:20;;;;;;;5.05;4.30;;;;;;;4.47;88.63;97686.44;10446359;28;20059;-77
2023/03/10 12:25:44;;;;;;;6.03;4.93;;;;;;;4.36;88.28;97689.28;10438856;28;20381;-78
2023/03/10 12:30:49;;;;;;;7.80;5.40;;;;;;;4.31;88.89;97687.09;10448354;28;20073;-79
2023/03/10 12:35:55;;;;;;;7.07;5.95;;;;;;;4.29;88.72;97680.25;10443563;28;20038;-79
2023/03/10 12:41:00;;;;;;;7.10;4.97;;;;;;;4.27;88.68;97679.56;10443276;28;20049;-79
2023/03/10 12:46:04;;;;;;;5.88;4.85;;;;;;;4.62;89.90;97674.25;10438917;28;20048;-77
2023/03/10 12:51:12;;;;;;;6.78;5.22;;;;;;;4.77;89.19;97677.22;10423337;28;20049;-76
2023/03/10 12:56:22;;;;;;;6.45;4.78;;;;;;;4.67;88.75;97665.00;10441177;28;20042;-77
2023/03/10 13:01:31;;;;;;;6.55;5.68;;;;;;;4.73;89.21;97661.72;10435206;28;20036;-77
2023/03/10 13:06:38;;;;;;;5.03;4.50;;;;;;;4.91;89.66;97649.25;10423726;28;20047;-79
2023/03/10 13:11:44;;;;;;;6.38;5.65;;;;;;;4.94;88.78;97656.09;10432039;28;20095;-79
2023/03/10 13:16:53;;;;;;;7.60;6.30;;;;;;;5.03;89.38;97658.66;10452683;28;20048;-79
2023/03/10 13:21:56;;;;;;;6.55;5.00;;;;;;;5.11;89.18;97654.41;10434553;28;20051;-77
2023/03/10 13:27:06;;;;;;;7.28;5.30;;;;;;;5.00;88.75;97650.16;10440196;28;20041;-79
2023/03/10 13:32:18;;;;;;;7.35;5.03;;;;;;;4.84;88.47;97645.53;10436099;28;20053;-79
2023/03/10 13:37:21;;;;;;;5.97;5.20;;;;;;;4.84;88.81;97635.72;10434309;28;20041;-79
2023/03/10 13:42:27;;;;;;;6.68;4.95;;;;;;;5.01;89.54;97636.69;10438980;28;20036;-75
2023/03/10 13:47:46;;;;;;;8.98;6.20;;;;;;;5.36;90.93;97634.91;10443434;28;20049;-78
2023/03/10 13:52:52;;;;;;;7.35;5.28;;;;;;;6.18;92.55;97630.72;10438924;28;20119;-78
2023/03/10 13:57:58;;;;;;;6.15;5.18;;;;;;;6.79;90.42;97633.13;10433820;28;20045;-77
2023/03/10 14:03:01;;;;;;;5.63;5.10;;;;;;;6.39;88.36;97627.59;10440655;28;20063;-78
2023/03/10 14:08:05;;;;;;;6.00;5.40;;;;;;;5.84;88.54;97625.50;10433423;28;20045;-73
2023/03/10 14:13:39;;;;;;;6.00;5.40;;;;;;;5.71;89.02;97625.94;10435168;28;20060;-78
2023/03/10 14:18:42;;;;;;;6.90;5.75;;;;;;;5.79;90.00;97619.81;10433404;28;20045;-78
2023/03/10 14:23:45;;;;;;;8.88;5.75;;;;;;;5.86;89.58;97623.47;10427543;28;20048;-78
2023/03/10 14:28:49;;;;;;;6.35;5.10;;;;;;;5.68;89.20;97622.75;10436041;28;20041;-78
2023/03/10 14:33:53;;;;;;;5.90;5.30;;;;;;;5.53;88.95;97621.69;10431993;28;20045;-79
2023/03/10 14:38:56;;;;;;;9.43;6.70;;;;;;;5.37;88.83;97617.94;10437855;28;20038;-80
2023/03/10 14:44:01;;;;;;;7.65;6.53;;;;;;;5.29;89.02;97609.91;10427868;28;20081;-80
2023/03/10 14:49:05;;;;;;;8.55;7.30;;;;;;;5.34;88.92;97620.09;10438364;28;20438;-79
2023/03/10 14:54:16;;;;;;;8.45;6.95;;;;;;;5.28;89.14;97640.19;10442470;28;20037;-80
2023/03/10 14:59:20;;;;;;;13.38;7.93;;;;;;;4.73;87.63;97651.91;10437331;28;20044;-79
2023/03/10 15:04:23;;;;;;;7.72;6.30;;;;;;;3.39;92.66;97687.13;10441444;28;20041;-77
2023/03/10 15:09:26;;;;;;;10.55;8.15;;;;;;;4.15;90.34;97658.53;10439816;28;20057;-76
2023/03/10 15:14:30;;;;;;;12.02;8.43;;;;;;;4.37;89.04;97648.44;10432524;28;20041;-79
2023/03/10 15:19:33;;;;;;;14.68;9.93;;;;;;;4.47;88.97;97651.88;10440353;28;20080;-80
2023/03/10 15:24:36;;;;;;;12.07;8.70;;;;;;;4.40;89.66;97637.50;10444393;28;20415;-77
2023/03/10 15:29:40;;;;;;;14.60;8.95;;;;;;;4.45;88.97;97624.59;10441762;28;20045;-80
2023/03/10 15:34:43;;;;;;;14.05;9.88;;;;;;;4.47;88.44;97616.47;10448974;28;20549;-79
2023/03/10 15:39:45;;;;;;;13.07;8.70;;;;;;;4.40;88.56;97613.59;10438454;28;20098;-79
2023/03/10 15:44:50;;;;;;;17.05;10.07;;;;;;;4.38;88.28;97613.72;10445119;28;20029;-78
2023/03/10 15:49:53;;;;;;;16.55;10.32;;;;;;;4.32;88.39;97595.75;10449194;28;20412;-79
2023/03/10 15:54:56;;;;;;;16.85;9.77;;;;;;;4.32;88.48;97577.16;10455404;28;20045;-77
2023/03/10 16:00:00;;;;;;;13.35;8.38;;;;;;;4.30;88.22;97570.31;10463587;28;20063;-79
2023/03/10 16:05:07;;;;;;;12.05;8.10;;;;;;;4.25;88.14;97569.94;10435601;28;20431;-79
2023/03/10 16:10:11;;;;;;;12.73;8.00;;;;;;;4.17;88.99;97571.53;10445078;28;20045;-80
2023/03/10 16:15:16;;;;;;;13.57;8.43;;;;;;;4.11;89.38;97566.84;10440499;28;20041;-80
2023/03/10 16:20:20;;;;;;;10.05;7.05;;;;;;;4.04;88.71;97560.47;10448002;28;20045;-81
2023/03/10 16:25:23;;;;;;;15.50;8.75;;;;;;;3.90;88.47;97564.47;10436317;28;20041;-78
2023/03/10 16:30:27;;;;;;;14.25;9.30;;;;;;;3.91;89.26;97576.75;10443689;28;20547;-80
2023/03/10 16:35:30;;;;;;;14.35;7.60;;;;;;;3.92;88.71;97585.56;10440996;28;20481;-79
2023/03/10 16:40:33;;;;;;;10.80;7.97;;;;;;;3.87;88.51;97598.47;10441878;28;20091;-81
2023/03/10 16:45:37;;;;;;;12.50;8.70;;;;;;;3.87;88.69;97590.50;10428220;28;20102;-80
2023/03/10 16:50:40;;;;;;;12.00;7.50;;;;;;;3.84;88.26;97593.44;10442645;28;20021;-79
2023/03/10 16:55:42;;;;;;;10.55;7.82;;;;;;;3.78;88.15;97599.34;10438505;28;20060;-79
2023/03/10 17:00:47;;;;;;;15.90;7.90;;;;;;;3.69;88.19;97603.75;10442525;28;20033;-78
2023/03/10 17:05:52;;;;;;;11.32;8.50;;;;;;;3.58;88.52;97593.31;10435150;28;20032;-78
2023/03/10 17:10:55;;;;;;;9.80;7.03;;;;;;;3.52;88.18;97583.31;10422257;28;20055;-79
2023/03/10 17:16:00;;;;;;;13.00;8.32;;;;;;;3.55;88.43;97580.34;10439103;28;20099;-79
2023/03/10 17:21:11;;;;;;;10.38;7.13;;;;;;;3.49;87.96;97605.66;10438918;28;20049;-78
2023/03/10 17:26:14;;;;;;;9.38;6.32;;;;;;;3.33;88.15;97639.94;10440750;28;20049;-79
2023/03/10 17:31:22;;;;;;;17.35;10.50;;;;;;;3.25;88.38;97635.38;10435305;28;20053;-80
2023/03/10 17:36:25;;;;;;;9.18;6.10;;;;;;;3.21;87.76;97613.59;10436804;28;20045;-80
2023/03/10 17:41:29;;;;;;;9.88;7.03;;;;;;;3.16;88.10;97622.97;10438842;28;20049;-79
2023/03/10 17:46:33;;;;;;;9.25;6.65;;;;;;;3.07;87.91;97640.56;10430918;28;20087;-79
2023/03/10 17:51:36;;;;;;;10.05;6.70;;;;;;;3.08;88.16;97654.69;10437383;28;20059;-78
2023/03/10 17:56:42;;;;;;;10.40;7.68;;;;;;;2.95;87.78;97662.94;10438046;28;20450;-80
2023/03/10 18:01:48;;;;;;;7.70;5.10;;;;;;;2.77;87.70;97674.28;10432605;28;20047;-79
2023/03/10 18:06:50;;;;;;;10.65;6.93;;;;;;;2.46;88.20;97689.44;10437851;28;20068;-79
2023/03/10 18:11:55;;;;;;;8.27;5.15;;;;;;;2.21;87.68;97706.69;10433628;28;20040;-80
2023/03/10 18:17:01;;;;;;;10.90;6.35;;;;;;;1.91;86.97;97734.06;10438078;28;20042;-80
2023/03/10 18:22:05;;;;;;;9.20;6.28;;;;;;;1.21;85.79;97764.78;10438132;28;20128;-81
2023/03/10 18:27:08;;;;;;;10.68;6.03;;;;;;;0.51;86.52;97780.19;10438664;28;20514;-81
2023/03/10 18:32:12;;;;;;;10.43;5.97;;;;;;;0.12;86.84;97803.56;10432247;28;20046;-78
2023/03/10 18:37:15;;;;;;;7.35;4.88;;;;;;;-0.01;88.07;97816.03;10443096;28;20041;-76
2023/03/10 18:42:20;;;;;;;9.05;5.72;;;;;;;0.07;87.26;97845.31;10430787;28;20080;-79
2023/03/10 18:47:24;;;;;;;10.55;4.65;;;;;;;-0.18;87.85;97885.97;10434903;28;20043;-80
2023/03/10 18:52:27;;;;;;;11.07;5.65;;;;;;;-0.14;87.55;97919.09;10419384;28;20104;-79
2023/03/10 18:57:31;;;;;;;11.65;6.45;;;;;;;-0.14;87.83;97963.06;10431162;28;20470;-79
2023/03/10 19:02:35;;;;;;;17.02;8.43;;;;;;;-0.37;87.83;97986.75;10446313;28;20055;-77
2023/03/10 19:07:38;;;;;;;17.60;9.10;;;;;;;-0.44;87.84;98040.91;10435463;28;20100;-78
2023/03/10 19:12:41;;;;;;;24.63;11.52;;;;;;;-0.23;87.95;98072.78;10443994;28;20450;-78
2023/03/10 19:17:46;;;;;;;24.02;11.65;;;;;;;-0.18;87.86;98088.28;10426959;28;20430;-78
2023/03/10 19:22:50;;;;;;;28.25;13.13;;;;;;;-0.52;89.41;98117.13;10421614;28;20037;-79
2023/03/10 19:27:53;;;;;;;27.83;12.05;;;;;;;-0.38;87.93;98119.59;10428693;28;20046;-78
2023/03/10 19:32:57;;;;;;;28.77;14.20;;;;;;;-0.39;87.65;98144.28;10444101;28;20049;-79
2023/03/10 19:38:00;;;;;;;29.73;13.13;;;;;;;-0.69;88.76;98167.56;10432488;28;20045;-77
2023/03/10 19:43:03;;;;;;;22.23;11.32;;;;;;;-0.37;88.59;98203.06;10443847;28;20041;-78
2023/03/10 19:48:07;;;;;;;23.05;12.70;;;;;;;-0.44;88.21;98214.97;10445782;28;20052;-78
2023/03/10 19:53:10;;;;;;;24.52;12.95;;;;;;;-0.23;87.62;98243.44;10442933;28;20041;-79
2023/03/10 19:58:13;;;;;;;25.45;13.00;;;;;;;-0.47;88.24;98275.84;10442583;28;20064;-77
2023/03/10 20:03:18;;;;;;;24.40;13.57;;;;;;;-0.41;88.35;98288.66;10441641;28;20077;-79
2023/03/10 20:08:21;;;;;;;30.75;13.85;;;;;;;-0.53;89.26;98321.97;10429711;28;20172;-77
2023/03/10 20:13:24;;;;;;;30.48;14.13;;;;;;;-0.52;89.20;98354.47;10451305;28;20111;-79
2023/03/10 20:18:28;;;;;;;24.15;12.90;;;;;;;-0.57;88.79;98377.66;10453399;28;20463;-76
2023/03/10 20:23:32;;;;;;;34.20;15.18;;;;;;;-0.67;89.23;98403.78;10464579;28;20045;-78
2023/03/10 20:28:38;;;;;;;30.55;13.10;;;;;;;-0.21;87.79;98444.72;10468866;28;20068;-79
2023/03/10 20:33:42;;;;;;;31.65;14.43;;;;;;;-0.25;87.54;98457.25;10451451;28;20102;-81
2023/03/10 20:38:46;;;;;;;36.60;13.85;;;;;;;-0.17;86.97;98491.06;10446057;28;20036;-77
2023/03/10 20:43:50;;;;;;;40.05;14.70;;;;;;;-0.30;87.77;98513.00;10447534;28;20033;-79
2023/03/10 20:48:54;;;;;;;33.22;15.48;;;;;;;-0.36;87.80;98539.75;10443403;28;20072;-79
2023/03/10 20:53:57;;;;;;;29.77;15.32;;;;;;;-0.51;89.32;98556.59;10443634;28;20037;-80
2023/03/10 20:59:00;;;;;;;41.30;17.92;;;;;;;-0.45;88.56;98572.03;10445733;28;20492;-77
2023/03/10 21:04:05;;;;;;;40.63;16.42;;;;;;;-0.42;88.48;98594.72;10414111;28;20053;-79
2023/03/10 21:09:08;;;;;;;34.63;17.02;;;;;;;-0.46;88.44;98614.34;10405543;28;20547;-79
2023/03/10 21:14:11;;;;;;;32.95;14.98;;;;;;;-0.34;88.55;98621.47;10385200;28;20048;-80
2023/03/10 21:19:15;;;;;;;33.28;14.43;;;;;;;-0.93;90.00;98637.47;10406055;28;20049;-80
2023/03/10 21:24:18;;;;;;;36.58;15.90;;;;;;;-0.69;89.92;98650.91;10409992;28;20609;-78
2023/03/10 21:29:21;;;;;;;32.60;15.77;;;;;;;-0.44;89.22;98666.03;10409949;28;20076;-80
2023/03/10 21:34:25;;;;;;;35.35;16.23;;;;;;;-0.41;88.18;98686.09;10407915;28;21225;-80
2023/03/10 21:39:28;;;;;;;26.90;14.43;;;;;;;-0.60;90.27;98704.91;10399772;28;20303;-80
2023/03/10 21:44:31;;;;;;;23.85;11.00;;;;;;;-0.99;90.78;98715.13;10385199;28;20057;-81
2023/03/10 21:49:35;;;;;;;30.80;14.07;;;;;;;-0.84;89.98;98729.16;10402888;28;20132;-78
2023/03/10 21:54:39;;;;;;;29.73;14.45;;;;;;;-0.90;89.78;98745.34;10404120;28;20673;-78
2023/03/10 21:59:42;;;;;;;27.55;13.93;;;;;;;-0.67;89.81;98764.22;10396559;28;20041;-80
2023/03/10 22:04:46;;;;;;;21.65;9.93;;;;;;;-0.82;90.78;98773.91;10384521;28;20051;-80
2023/03/10 22:09:49;;;;;;;25.80;12.43;;;;;;;-0.69;89.75;98797.72;10399202;28;20052;-80
2023/03/10 22:14:56;;;;;;;27.27;11.60;;;;;;;-0.48;89.20;98809.63;10368810;28;21618;-79
2023/03/10 22:20:00;;;;;;;17.38;7.03;;;;;;;-1.16;93.27;98820.66;10446965;28;20131;-79
2023/03/10 22:25:03;;;;;;;20.95;10.63;;;;;;;-0.80;90.99;98827.38;10446300;28;20098;-79
2023/03/10 22:30:08;;;;;;;16.77;8.88;;;;;;;-0.52;89.21;98837.16;10439161;28;20052;-80
2023/03/10 22:35:12;;;;;;;20.48;10.00;;;;;;;-0.69;89.74;98851.31;10473028;23;20060;-74
2023/03/10 22:40:17;;;;;;;21.23;9.77;;;;;;;-0.60;89.59;98863.13;10424635;28;20064;-76
2023/03/10 22:45:23;;;;;;;19.17;9.05;;;;;;;-0.71;89.88;98890.13;10435941;28;20040;-76
2023/03/10 22:50:31;;;;;;;20.70;9.32;;;;;;;-0.56;89.74;98901.56;10418961;28;20183;-76
2023/03/10 22:55:37;;;;;;;14.05;6.95;;;;;;;-1.07;91.42;98919.44;10415742;28;20467;-76
2023/03/10 23:00:41;;;;;;;12.90;6.80;;;;;;;-0.83;91.16;98933.00;10414382;28;20059;-76
2023/03/10 23:05:45;;;;;;;14.10;7.20;;;;;;;-0.76;90.04;98947.56;10417671;28;20157;-76
2023/03/10 23:10:49;;;;;;;10.70;6.30;;;;;;;-0.72;89.77;98963.09;10407405;28;20148;-76
2023/03/10 23:15:52;;;;;;;7.45;5.10;;;;;;;-0.59;89.16;98962.41;10410969;28;20500;-76
2023/03/10 23:20:56;;;;;;;7.88;4.60;;;;;;;-0.90;90.83;98976.50;10425461;28;20072;-76
2023/03/10 23:25:59;;;;;;;8.18;4.82;;;;;;;-0.52;88.82;98983.06;10426740;28;20068;-76
2023/03/10 23:31:03;;;;;;;5.13;3.80;;;;;;;-1.17;90.50;98996.38;10404498;23;20068;-79